sensor_id;sensor_type;location;lat;lon;timestamp;P1;durP1;ratioP1;P2;durP2;ratioP2
20597;SDS011;10457;48.770;11.446;2022-10-14T00:00:21;38.73;;;25.00;;
20597;SDS011;10457;48.770;11.446;2022-10-14T00:05:43;33.20;;;22.77;;
20597;SDS011;10457;48.770;11.446;2022-10-14T00:11:08;37.40;;;23.70;;
20597;SDS011;10457;48.770;11.446;2022-10-14T00:16:33;38.07;;;24.50;;
20597;SDS011;10457;48.770;11.446;2022-10-14T00:21:56;41.60;;;25.30;;
20597;SDS011;10457;48.770;11.446;2022-10-14T00:27:19;38.17;;;24.53;;
20597;SDS011;10457;48.770;11.446;2022-10-14T00:32:41;39.17;;;24.20;;
20597;SDS011;10457;48.770;11.446;2022-10-14T00:38:02;38.30;;;23.57;;
20597;SDS011;10457;48.770;11.446;2022-10-14T00:43:25;41.87;;;25.10;;
20597;SDS011;10457;48.770;11.446;2022-10-14T00:48:48;40.67;;;24.80;;
20597;SDS011;10457;48.770;11.446;2022-10-14T00:54:10;34.37;;;22.50;;
20597;SDS011;10457;48.770;11.446;2022-10-14T00:59:36;40.43;;;24.77;;
20597;SDS011;10457;48.770;11.446;2022-10-14T01:04:59;43.13;;;25.93;;
20597;SDS011;10457;48.770;11.446;2022-10-14T01:10:29;37.60;;;23.70;;
20597;SDS011;10457;48.770;11.446;2022-10-14T01:16:08;39.10;;;24.97;;
20597;SDS011;10457;48.770;11.446;2022-10-14T01:21:41;36.83;;;23.97;;
20597;SDS011;10457;48.770;11.446;2022-10-14T01:27:16;37.90;;;25.33;;
20597;SDS011;10457;48.770;11.446;2022-10-14T01:32:58;34.40;;;22.97;;
20597;SDS011;10457;48.770;11.446;2022-10-14T01:38:29;41.97;;;25.17;;
20597;SDS011;10457;48.770;11.446;2022-10-14T01:44:00;36.23;;;22.83;;
20597;SDS011;10457;48.770;11.446;2022-10-14T01:49:28;34.60;;;23.53;;
20597;SDS011;10457;48.770;11.446;2022-10-14T01:54:56;46.03;;;26.17;;
20597;SDS011;10457;48.770;11.446;2022-10-14T02:00:23;40.20;;;24.27;;
20597;SDS011;10457;48.770;11.446;2022-10-14T02:05:47;34.47;;;24.30;;
20597;SDS011;10457;48.770;11.446;2022-10-14T02:11:14;36.73;;;23.57;;
20597;SDS011;10457;48.770;11.446;2022-10-14T02:16:39;30.97;;;22.30;;
20597;SDS011;10457;48.770;11.446;2022-10-14T02:22:12;37.17;;;24.87;;
20597;SDS011;10457;48.770;11.446;2022-10-14T02:27:42;38.17;;;24.47;;
20597;SDS011;10457;48.770;11.446;2022-10-14T02:33:05;35.30;;;23.03;;
20597;SDS011;10457;48.770;11.446;2022-10-14T02:38:28;32.50;;;23.50;;
20597;SDS011;10457;48.770;11.446;2022-10-14T02:43:51;37.97;;;24.67;;
20597;SDS011;10457;48.770;11.446;2022-10-14T02:49:13;45.50;;;25.90;;
20597;SDS011;10457;48.770;11.446;2022-10-14T02:54:37;38.17;;;23.40;;
20597;SDS011;10457;48.770;11.446;2022-10-14T02:59:59;41.27;;;25.30;;
20597;SDS011;10457;48.770;11.446;2022-10-14T03:05:21;40.63;;;24.93;;
20597;SDS011;10457;48.770;11.446;2022-10-14T03:10:46;42.57;;;24.90;;
20597;SDS011;10457;48.770;11.446;2022-10-14T03:16:08;42.17;;;26.03;;
20597;SDS011;10457;48.770;11.446;2022-10-14T03:21:34;39.47;;;26.23;;
20597;SDS011;10457;48.770;11.446;2022-10-14T03:26:57;39.33;;;25.17;;
20597;SDS011;10457;48.770;11.446;2022-10-14T03:32:22;36.97;;;24.20;;
20597;SDS011;10457;48.770;11.446;2022-10-14T03:38:02;39.73;;;25.83;;
20597;SDS011;10457;48.770;11.446;2022-10-14T03:43:28;42.60;;;25.43;;
20597;SDS011;10457;48.770;11.446;2022-10-14T03:48:51;42.67;;;25.63;;
20597;SDS011;10457;48.770;11.446;2022-10-14T03:54:13;40.63;;;25.17;;
20597;SDS011;10457;48.770;11.446;2022-10-14T03:59:37;35.57;;;23.40;;
20597;SDS011;10457;48.770;11.446;2022-10-14T04:05:00;36.73;;;24.70;;
20597;SDS011;10457;48.770;11.446;2022-10-14T04:10:22;39.07;;;25.50;;
20597;SDS011;10457;48.770;11.446;2022-10-14T04:15:48;37.93;;;24.00;;
20597;SDS011;10457;48.770;11.446;2022-10-14T04:21:16;43.83;;;23.87;;
20597;SDS011;10457;48.770;11.446;2022-10-14T04:26:42;36.27;;;24.03;;
20597;SDS011;10457;48.770;11.446;2022-10-14T04:32:11;35.27;;;23.23;;
20597;SDS011;10457;48.770;11.446;2022-10-14T04:37:32;34.47;;;23.10;;
20597;SDS011;10457;48.770;11.446;2022-10-14T04:43:05;31.57;;;22.37;;
20597;SDS011;10457;48.770;11.446;2022-10-14T04:48:32;38.13;;;21.80;;
20597;SDS011;10457;48.770;11.446;2022-10-14T04:53:55;35.30;;;22.47;;
20597;SDS011;10457;48.770;11.446;2022-10-14T04:59:40;30.27;;;19.67;;
20597;SDS011;10457;48.770;11.446;2022-10-14T05:05:09;44.83;;;21.47;;
20597;SDS011;10457;48.770;11.446;2022-10-14T05:10:34;30.50;;;20.50;;
20597;SDS011;10457;48.770;11.446;2022-10-14T05:16:00;33.70;;;20.63;;
20597;SDS011;10457;48.770;11.446;2022-10-14T05:21:25;31.37;;;19.13;;
20597;SDS011;10457;48.770;11.446;2022-10-14T05:26:53;29.77;;;18.87;;
20597;SDS011;10457;48.770;11.446;2022-10-14T05:32:14;35.73;;;20.10;;
20597;SDS011;10457;48.770;11.446;2022-10-14T05:37:42;31.27;;;19.30;;
20597;SDS011;10457;48.770;11.446;2022-10-14T05:43:04;31.30;;;19.63;;
20597;SDS011;10457;48.770;11.446;2022-10-14T05:48:28;30.27;;;18.40;;
20597;SDS011;10457;48.770;11.446;2022-10-14T05:53:53;29.60;;;18.03;;
20597;SDS011;10457;48.770;11.446;2022-10-14T05:59:15;30.20;;;18.30;;
20597;SDS011;10457;48.770;11.446;2022-10-14T06:04:39;29.03;;;17.87;;
20597;SDS011;10457;48.770;11.446;2022-10-14T06:10:03;32.43;;;16.87;;
20597;SDS011;10457;48.770;11.446;2022-10-14T06:15:25;20.97;;;14.73;;
20597;SDS011;10457;48.770;11.446;2022-10-14T06:20:51;22.97;;;15.13;;
20597;SDS011;10457;48.770;11.446;2022-10-14T06:26:14;29.23;;;17.67;;
20597;SDS011;10457;48.770;11.446;2022-10-14T06:31:38;29.17;;;17.52;;
20597;SDS011;10457;48.770;11.446;2022-10-14T06:37:00;23.95;;;15.40;;
20597;SDS011;10457;48.770;11.446;2022-10-14T06:42:23;19.23;;;15.17;;
20597;SDS011;10457;48.770;11.446;2022-10-14T06:47:44;31.92;;;15.70;;
20597;SDS011;10457;48.770;11.446;2022-10-14T06:53:07;20.25;;;14.23;;
20597;SDS011;10457;48.770;11.446;2022-10-14T06:58:30;23.80;;;14.45;;
20597;SDS011;10457;48.770;11.446;2022-10-14T07:03:52;18.70;;;13.32;;
20597;SDS011;10457;48.770;11.446;2022-10-14T07:09:14;17.92;;;13.52;;
20597;SDS011;10457;48.770;11.446;2022-10-14T07:14:37;16.92;;;13.15;;
20597;SDS011;10457;48.770;11.446;2022-10-14T07:19:58;20.38;;;13.15;;
20597;SDS011;10457;48.770;11.446;2022-10-14T07:25:20;21.80;;;13.38;;
20597;SDS011;10457;48.770;11.446;2022-10-14T07:30:43;17.77;;;11.88;;
20597;SDS011;10457;48.770;11.446;2022-10-14T07:36:05;18.20;;;13.30;;
20597;SDS011;10457;48.770;11.446;2022-10-14T07:41:29;24.25;;;12.75;;
20597;SDS011;10457;48.770;11.446;2022-10-14T07:46:53;19.92;;;12.02;;
20597;SDS011;10457;48.770;11.446;2022-10-14T07:52:15;15.07;;;10.45;;
20597;SDS011;10457;48.770;11.446;2022-10-14T07:57:41;15.90;;;10.15;;
20597;SDS011;10457;48.770;11.446;2022-10-14T08:03:06;14.93;;;10.32;;
20597;SDS011;10457;48.770;11.446;2022-10-14T08:08:27;14.68;;;10.23;;
20597;SDS011;10457;48.770;11.446;2022-10-14T08:13:50;14.80;;;10.18;;
20597;SDS011;10457;48.770;11.446;2022-10-14T08:19:13;15.90;;;10.05;;
20597;SDS011;10457;48.770;11.446;2022-10-14T08:24:41;15.07;;;9.88;;
20597;SDS011;10457;48.770;11.446;2022-10-14T08:30:03;20.00;;;11.07;;
20597;SDS011;10457;48.770;11.446;2022-10-14T08:35:27;18.33;;;9.02;;
20597;SDS011;10457;48.770;11.446;2022-10-14T08:40:52;14.65;;;9.02;;
20597;SDS011;10457;48.770;11.446;2022-10-14T08:46:22;19.20;;;7.95;;
20597;SDS011;10457;48.770;11.446;2022-10-14T08:51:52;12.95;;;8.43;;
20597;SDS011;10457;48.770;11.446;2022-10-14T08:57:20;13.57;;;8.35;;
20597;SDS011;10457;48.770;11.446;2022-10-14T09:02:47;11.73;;;8.68;;
20597;SDS011;10457;48.770;11.446;2022-10-14T09:08:13;11.50;;;8.10;;
20597;SDS011;10457;48.770;11.446;2022-10-14T09:13:37;9.68;;;6.93;;
20597;SDS011;10457;48.770;11.446;2022-10-14T09:19:02;9.18;;;6.97;;
20597;SDS011;10457;48.770;11.446;2022-10-14T09:24:29;9.82;;;7.88;;
20597;SDS011;10457;48.770;11.446;2022-10-14T09:29:54;12.45;;;6.18;;
20597;SDS011;10457;48.770;11.446;2022-10-14T09:35:21;10.65;;;7.20;;
20597;SDS011;10457;48.770;11.446;2022-10-14T09:40:48;7.80;;;6.32;;
20597;SDS011;10457;48.770;11.446;2022-10-14T09:46:14;11.20;;;7.13;;
20597;SDS011;10457;48.770;11.446;2022-10-14T09:51:44;6.82;;;6.18;;
20597;SDS011;10457;48.770;11.446;2022-10-14T09:57:16;7.72;;;6.97;;
20597;SDS011;10457;48.770;11.446;2022-10-14T10:02:39;11.75;;;7.82;;
20597;SDS011;10457;48.770;11.446;2022-10-14T10:08:05;6.80;;;6.10;;
20597;SDS011;10457;48.770;11.446;2022-10-14T10:13:38;5.75;;;5.07;;
20597;SDS011;10457;48.770;11.446;2022-10-14T10:19:19;8.68;;;4.88;;
20597;SDS011;10457;48.770;11.446;2022-10-14T10:24:47;7.60;;;5.32;;
20597;SDS011;10457;48.770;11.446;2022-10-14T10:30:20;13.05;;;5.97;;
20597;SDS011;10457;48.770;11.446;2022-10-14T10:35:51;6.57;;;5.05;;
20597;SDS011;10457;48.770;11.446;2022-10-14T10:41:33;5.70;;;4.80;;
20597;SDS011;10457;48.770;11.446;2022-10-14T10:47:10;7.00;;;4.35;;
20597;SDS011;10457;48.770;11.446;2022-10-14T11:04:59;5.32;;;4.00;;
20597;SDS011;10457;48.770;11.446;2022-10-14T11:10:30;6.13;;;3.53;;
20597;SDS011;10457;48.770;11.446;2022-10-14T11:16:19;4.13;;;3.53;;
20597;SDS011;10457;48.770;11.446;2022-10-14T11:21:50;5.40;;;4.88;;
20597;SDS011;10457;48.770;11.446;2022-10-14T11:27:22;3.60;;;3.15;;
20597;SDS011;10457;48.770;11.446;2022-10-14T11:32:55;10.32;;;3.33;;
20597;SDS011;10457;48.770;11.446;2022-10-14T11:38:32;4.45;;;3.40;;
20597;SDS011;10457;48.770;11.446;2022-10-14T11:44:09;5.68;;;3.60;;
20597;SDS011;10457;48.770;11.446;2022-10-14T11:49:41;4.18;;;3.28;;
20597;SDS011;10457;48.770;11.446;2022-10-14T11:55:14;4.68;;;3.30;;
20597;SDS011;10457;48.770;11.446;2022-10-14T12:00:39;2.30;;;2.10;;
20597;SDS011;10457;48.770;11.446;2022-10-14T12:06:05;4.45;;;2.00;;
20597;SDS011;10457;48.770;11.446;2022-10-14T12:11:36;6.95;;;4.63;;
20597;SDS011;10457;48.770;11.446;2022-10-14T12:17:03;2.50;;;2.30;;
20597;SDS011;10457;48.770;11.446;2022-10-14T12:22:29;6.65;;;3.55;;
20597;SDS011;10457;48.770;11.446;2022-10-14T12:27:54;2.33;;;2.00;;
20597;SDS011;10457;48.770;11.446;2022-10-14T12:33:16;2.92;;;2.22;;
20597;SDS011;10457;48.770;11.446;2022-10-14T12:38:39;1.80;;;1.67;;
20597;SDS011;10457;48.770;11.446;2022-10-14T12:44:09;4.15;;;2.53;;
20597;SDS011;10457;48.770;11.446;2022-10-14T12:49:35;2.53;;;2.33;;
20597;SDS011;10457;48.770;11.446;2022-10-14T12:54:57;3.22;;;2.13;;
20597;SDS011;10457;48.770;11.446;2022-10-14T13:00:31;2.33;;;1.80;;
20597;SDS011;10457;48.770;11.446;2022-10-14T13:06:25;6.30;;;2.03;;
20597;SDS011;10457;48.770;11.446;2022-10-14T13:24:15;3.70;;;1.95;;
20597;SDS011;10457;48.770;11.446;2022-10-14T13:29:54;4.10;;;1.90;;
20597;SDS011;10457;48.770;11.446;2022-10-14T13:35:30;3.95;;;1.88;;
20597;SDS011;10457;48.770;11.446;2022-10-14T13:40:57;4.45;;;2.33;;
20597;SDS011;10457;48.770;11.446;2022-10-14T13:46:20;1.98;;;1.45;;
20597;SDS011;10457;48.770;11.446;2022-10-14T13:51:50;1.60;;;1.50;;
20597;SDS011;10457;48.770;11.446;2022-10-14T13:57:15;1.90;;;1.30;;
20597;SDS011;10457;48.770;11.446;2022-10-14T14:02:37;1.90;;;1.52;;
20597;SDS011;10457;48.770;11.446;2022-10-14T14:08:05;3.05;;;1.92;;
20597;SDS011;10457;48.770;11.446;2022-10-14T14:13:35;3.38;;;1.92;;
20597;SDS011;10457;48.770;11.446;2022-10-14T14:19:15;5.00;;;2.45;;
20597;SDS011;10457;48.770;11.446;2022-10-14T14:24:39;5.13;;;2.10;;
20597;SDS011;10457;48.770;11.446;2022-10-14T14:30:01;2.78;;;2.17;;
20597;SDS011;10457;48.770;11.446;2022-10-14T14:35:27;6.50;;;4.22;;
20597;SDS011;10457;48.770;11.446;2022-10-14T14:41:04;5.93;;;5.32;;
20597;SDS011;10457;48.770;11.446;2022-10-14T14:46:30;5.43;;;4.32;;
20597;SDS011;10457;48.770;11.446;2022-10-14T14:51:58;3.47;;;2.28;;
20597;SDS011;10457;48.770;11.446;2022-10-14T14:57:22;2.25;;;2.08;;
20597;SDS011;10457;48.770;11.446;2022-10-14T15:02:46;3.90;;;2.10;;
20597;SDS011;10457;48.770;11.446;2022-10-14T15:08:13;2.22;;;1.48;;
20597;SDS011;10457;48.770;11.446;2022-10-14T15:13:46;2.25;;;1.60;;
20597;SDS011;10457;48.770;11.446;2022-10-14T15:19:12;3.35;;;2.22;;
20597;SDS011;10457;48.770;11.446;2022-10-14T15:25:00;2.35;;;1.77;;
20597;SDS011;10457;48.770;11.446;2022-10-14T15:30:29;1.98;;;1.88;;
20597;SDS011;10457;48.770;11.446;2022-10-14T15:35:58;3.15;;;1.55;;
20597;SDS011;10457;48.770;11.446;2022-10-14T15:41:21;4.80;;;2.45;;
20597;SDS011;10457;48.770;11.446;2022-10-14T15:46:47;3.97;;;2.38;;
20597;SDS011;10457;48.770;11.446;2022-10-14T15:52:29;5.07;;;2.13;;
20597;SDS011;10457;48.770;11.446;2022-10-14T15:57:50;2.30;;;2.10;;
20597;SDS011;10457;48.770;11.446;2022-10-14T16:03:14;3.83;;;2.95;;
20597;SDS011;10457;48.770;11.446;2022-10-14T16:08:36;6.13;;;4.28;;
20597;SDS011;10457;48.770;11.446;2022-10-14T16:14:01;15.65;;;10.82;;
20597;SDS011;10457;48.770;11.446;2022-10-14T16:19:24;5.18;;;3.53;;
20597;SDS011;10457;48.770;11.446;2022-10-14T16:24:45;10.57;;;7.20;;
20597;SDS011;10457;48.770;11.446;2022-10-14T16:30:08;6.70;;;3.97;;
20597;SDS011;10457;48.770;11.446;2022-10-14T16:35:31;5.07;;;2.45;;
20597;SDS011;10457;48.770;11.446;2022-10-14T16:40:53;4.93;;;3.00;;
20597;SDS011;10457;48.770;11.446;2022-10-14T16:46:15;3.83;;;3.03;;
20597;SDS011;10457;48.770;11.446;2022-10-14T16:51:41;11.02;;;9.82;;
20597;SDS011;10457;48.770;11.446;2022-10-14T16:57:03;4.72;;;2.80;;
20597;SDS011;10457;48.770;11.446;2022-10-14T17:02:25;4.82;;;3.60;;
20597;SDS011;10457;48.770;11.446;2022-10-14T17:07:51;18.95;;;9.75;;
20597;SDS011;10457;48.770;11.446;2022-10-14T17:13:12;8.60;;;4.70;;
20597;SDS011;10457;48.770;11.446;2022-10-14T17:18:35;4.68;;;2.70;;
20597;SDS011;10457;48.770;11.446;2022-10-14T17:23:58;6.30;;;4.60;;
20597;SDS011;10457;48.770;11.446;2022-10-14T17:29:21;7.50;;;4.20;;
20597;SDS011;10457;48.770;11.446;2022-10-14T17:34:43;6.90;;;4.40;;
20597;SDS011;10457;48.770;11.446;2022-10-14T17:40:06;4.00;;;3.58;;
20597;SDS011;10457;48.770;11.446;2022-10-14T17:45:31;9.50;;;5.05;;
20597;SDS011;10457;48.770;11.446;2022-10-14T17:50:52;19.42;;;8.20;;
20597;SDS011;10457;48.770;11.446;2022-10-14T17:56:16;12.00;;;6.25;;
20597;SDS011;10457;48.770;11.446;2022-10-14T18:01:37;16.23;;;6.40;;
20597;SDS011;10457;48.770;11.446;2022-10-14T18:06:59;12.95;;;5.65;;
20597;SDS011;10457;48.770;11.446;2022-10-14T18:12:22;12.43;;;7.55;;
20597;SDS011;10457;48.770;11.446;2022-10-14T18:17:43;9.27;;;5.90;;
20597;SDS011;10457;48.770;11.446;2022-10-14T18:23:04;11.25;;;6.35;;
20597;SDS011;10457;48.770;11.446;2022-10-14T18:28:27;11.65;;;6.32;;
20597;SDS011;10457;48.770;11.446;2022-10-14T18:33:49;11.57;;;6.65;;
20597;SDS011;10457;48.770;11.446;2022-10-14T18:39:11;12.00;;;6.65;;
20597;SDS011;10457;48.770;11.446;2022-10-14T18:44:35;10.63;;;6.32;;
20597;SDS011;10457;48.770;11.446;2022-10-14T18:49:56;11.82;;;7.32;;
20597;SDS011;10457;48.770;11.446;2022-10-14T18:55:18;10.85;;;5.65;;
20597;SDS011;10457;48.770;11.446;2022-10-14T19:00:42;5.78;;;4.43;;
20597;SDS011;10457;48.770;11.446;2022-10-14T19:06:03;9.80;;;5.70;;
20597;SDS011;10457;48.770;11.446;2022-10-14T19:11:29;7.15;;;6.03;;
20597;SDS011;10457;48.770;11.446;2022-10-14T19:16:53;8.55;;;4.72;;
20597;SDS011;10457;48.770;11.446;2022-10-14T19:22:15;7.65;;;4.65;;
20597;SDS011;10457;48.770;11.446;2022-10-14T19:27:37;6.25;;;5.55;;
20597;SDS011;10457;48.770;11.446;2022-10-14T19:33:00;6.85;;;5.43;;
20597;SDS011;10457;48.770;11.446;2022-10-14T19:38:21;14.93;;;6.22;;
20597;SDS011;10457;48.770;11.446;2022-10-14T19:43:54;7.00;;;4.78;;
20597;SDS011;10457;48.770;11.446;2022-10-14T19:49:19;9.27;;;7.20;;
20597;SDS011;10457;48.770;11.446;2022-10-14T19:54:40;6.13;;;5.20;;
20597;SDS011;10457;48.770;11.446;2022-10-14T20:00:02;7.55;;;5.38;;
20597;SDS011;10457;48.770;11.446;2022-10-14T20:05:26;6.88;;;5.50;;
20597;SDS011;10457;48.770;11.446;2022-10-14T20:10:49;9.02;;;5.50;;
20597;SDS011;10457;48.770;11.446;2022-10-14T20:16:11;9.65;;;7.38;;
20597;SDS011;10457;48.770;11.446;2022-10-14T20:21:34;7.75;;;6.47;;
20597;SDS011;10457;48.770;11.446;2022-10-14T20:26:56;6.60;;;5.20;;
20597;SDS011;10457;48.770;11.446;2022-10-14T20:32:17;6.13;;;4.95;;
20597;SDS011;10457;48.770;11.446;2022-10-14T20:37:40;11.13;;;5.28;;
20597;SDS011;10457;48.770;11.446;2022-10-14T20:43:02;8.65;;;5.20;;
20597;SDS011;10457;48.770;11.446;2022-10-14T20:48:24;9.80;;;6.15;;
20597;SDS011;10457;48.770;11.446;2022-10-14T20:53:47;11.20;;;5.47;;
20597;SDS011;10457;48.770;11.446;2022-10-14T20:59:10;12.02;;;6.25;;
20597;SDS011;10457;48.770;11.446;2022-10-14T21:04:33;6.97;;;5.32;;
20597;SDS011;10457;48.770;11.446;2022-10-14T21:09:56;6.93;;;5.53;;
20597;SDS011;10457;48.770;11.446;2022-10-14T21:15:18;8.93;;;5.32;;
20597;SDS011;10457;48.770;11.446;2022-10-14T21:20:39;6.57;;;5.90;;
20597;SDS011;10457;48.770;11.446;2022-10-14T21:26:02;13.23;;;5.57;;
20597;SDS011;10457;48.770;11.446;2022-10-14T21:31:29;8.23;;;5.25;;
20597;SDS011;10457;48.770;11.446;2022-10-14T21:36:51;6.80;;;5.63;;
20597;SDS011;10457;48.770;11.446;2022-10-14T21:42:17;9.82;;;5.18;;
20597;SDS011;10457;48.770;11.446;2022-10-14T21:47:38;10.32;;;6.32;;
20597;SDS011;10457;48.770;11.446;2022-10-14T21:53:00;8.98;;;5.82;;
20597;SDS011;10457;48.770;11.446;2022-10-14T21:58:22;6.95;;;5.18;;
20597;SDS011;10457;48.770;11.446;2022-10-14T22:03:44;7.28;;;5.13;;
20597;SDS011;10457;48.770;11.446;2022-10-14T22:09:06;5.85;;;4.68;;
20597;SDS011;10457;48.770;11.446;2022-10-14T22:14:29;8.60;;;5.15;;
20597;SDS011;10457;48.770;11.446;2022-10-14T22:19:51;10.43;;;5.45;;
20597;SDS011;10457;48.770;11.446;2022-10-14T22:25:12;7.47;;;5.30;;
20597;SDS011;10457;48.770;11.446;2022-10-14T22:30:36;8.77;;;5.15;;
20597;SDS011;10457;48.770;11.446;2022-10-14T22:36:03;5.78;;;5.05;;
20597;SDS011;10457;48.770;11.446;2022-10-14T22:41:26;5.03;;;4.50;;
20597;SDS011;10457;48.770;11.446;2022-10-14T22:46:50;7.47;;;4.25;;
20597;SDS011;10457;48.770;11.446;2022-10-14T22:52:12;6.25;;;4.20;;
20597;SDS011;10457;48.770;11.446;2022-10-14T22:57:34;5.93;;;3.78;;
20597;SDS011;10457;48.770;11.446;2022-10-14T23:02:57;8.32;;;3.83;;
20597;SDS011;10457;48.770;11.446;2022-10-14T23:08:19;6.22;;;3.63;;
20597;SDS011;10457;48.770;11.446;2022-10-14T23:13:41;4.67;;;4.07;;
20597;SDS011;10457;48.770;11.446;2022-10-14T23:19:04;8.43;;;3.90;;
20597;SDS011;10457;48.770;11.446;2022-10-14T23:24:26;4.65;;;3.38;;
20597;SDS011;10457;48.770;11.446;2022-10-14T23:29:47;5.85;;;3.28;;
20597;SDS011;10457;48.770;11.446;2022-10-14T23:35:10;5.03;;;4.25;;
20597;SDS011;10457;48.770;11.446;2022-10-14T23:40:32;4.10;;;3.23;;
20597;SDS011;10457;48.770;11.446;2022-10-14T23:45:53;3.70;;;3.33;;
20597;SDS011;10457;48.770;11.446;2022-10-14T23:51:16;3.53;;;2.67;;
20597;SDS011;10457;48.770;11.446;2022-10-14T23:56:38;5.78;;;3.40;;
